地図

経路データ

SID SEASON NUMBER BASIN SUBBASIN NAME ISO_TIME NATURE LAT LON WMO_WIND WMO_PRES WMO_AGENCY TRACK_TYPE DIST2LAND LANDFALL IFLAG USA_AGENCY USA_ATCF_ID USA_LAT USA_LON USA_RECORD USA_STATUS USA_WIND USA_PRES USA_SSHS USA_R34_NE USA_R34_SE USA_R34_SW USA_R34_NW USA_R50_NE USA_R50_SE USA_R50_SW USA_R50_NW USA_R64_NE USA_R64_SE USA_R64_SW USA_R64_NW USA_POCI USA_ROCI USA_RMW USA_EYE TOKYO_LAT TOKYO_LON TOKYO_GRADE TOKYO_WIND TOKYO_PRES TOKYO_R50_DIR TOKYO_R50_LONG TOKYO_R50_SHORT TOKYO_R30_DIR TOKYO_R30_LONG TOKYO_R30_SHORT TOKYO_LAND CMA_LAT CMA_LON CMA_CAT CMA_WIND CMA_PRES HKO_LAT HKO_LON HKO_CAT HKO_WIND HKO_PRES NEWDELHI_LAT NEWDELHI_LON NEWDELHI_GRADE NEWDELHI_WIND NEWDELHI_PRES NEWDELHI_CI NEWDELHI_DP NEWDELHI_POCI REUNION_LAT REUNION_LON REUNION_TYPE REUNION_WIND REUNION_PRES REUNION_TNUM REUNION_CI REUNION_RMW REUNION_R34_NE REUNION_R34_SE REUNION_R34_SW REUNION_R34_NW REUNION_R50_NE REUNION_R50_SE REUNION_R50_SW REUNION_R50_NW REUNION_R64_NE REUNION_R64_SE REUNION_R64_SW REUNION_R64_NW BOM_LAT BOM_LON BOM_TYPE BOM_WIND BOM_PRES BOM_TNUM BOM_CI BOM_RMW BOM_R34_NE BOM_R34_SE BOM_R34_SW BOM_R34_NW BOM_R50_NE BOM_R50_SE BOM_R50_SW BOM_R50_NW BOM_R64_NE BOM_R64_SE BOM_R64_SW BOM_R64_NW BOM_ROCI BOM_POCI BOM_EYE BOM_POS_METHOD BOM_PRES_METHOD NADI_LAT NADI_LON NADI_CAT NADI_WIND NADI_PRES WELLINGTON_LAT WELLINGTON_LON WELLINGTON_WIND WELLINGTON_PRES DS824_LAT DS824_LON DS824_STAGE DS824_WIND DS824_PRES TD9636_LAT TD9636_LON TD9636_STAGE TD9636_WIND TD9636_PRES TD9635_LAT TD9635_LON TD9635_WIND TD9635_PRES TD9635_ROCI NEUMANN_LAT NEUMANN_LON NEUMANN_CLASS NEUMANN_WIND NEUMANN_PRES MLC_LAT MLC_LON MLC_CLASS MLC_WIND MLC_PRES USA_GUST BOM_GUST BOM_GUST_PER REUNION_GUST REUNION_GUST_PER USA_SEAHGT USA_SEARAD_NE USA_SEARAD_SE USA_SEARAD_SW USA_SEARAD_NW STORM_SPEED STORM_DIR
1906203N22131 1906 23 WP MM NOT_NAMED 1906-07-21 16:00:00 NR 22.2000 130.800 main 943 938 __________O___ -1 22.2000 130.800 7 14 24
1906203N22131 1906 23 WP MM NOT_NAMED 1906-07-21 18:00:00 NR 22.6244 131.005 main 938 873 __________P___ -1 22.6244 131.005 7 14 24
1906203N22131 1906 23 WP MM NOT_NAMED 1906-07-21 21:00:00 NR 23.2391 131.305 main 873 808 __________P___ -1 23.2391 131.305 7 13 24
1906203N22131 1906 23 WP MM NOT_NAMED 1906-07-22 00:00:00 NR 23.7982 131.585 main 808 755 __________P___ -1 23.7982 131.585 7 11 25
1906203N22131 1906 23 WP MM NOT_NAMED 1906-07-22 03:00:00 NR 24.2686 131.829 main 755 746 __________P___ -1 24.2686 131.829 7 10 25
1906203N22131 1906 23 WP MM NOT_NAMED 1906-07-22 04:00:00 NR 24.4000 131.900 main 746 725 __________O___ -1 24.4000 131.900 7 8 26
1906203N22131 1906 23 WP MM NOT_NAMED 1906-07-22 06:00:00 NR 24.6209 132.024 main 725 696 __________P___ -1 24.6209 132.024 7 6 28
1906203N22131 1906 23 WP MM NOT_NAMED 1906-07-22 09:00:00 NR 24.8643 132.171 main 696 685 __________P___ -1 24.8643 132.171 7 5 29
1906203N22131 1906 23 WP MM NOT_NAMED 1906-07-22 12:00:00 NR 25.0328 132.283 main 688 668 __________P___ -1 25.0328 132.283 7 3 31
1906203N22131 1906 23 WP MM NOT_NAMED 1906-07-22 15:00:00 NR 25.1605 132.373 main 668 668 __________P___ -1 25.1605 132.373 7 3 32
1906203N22131 1906 23 WP MM NOT_NAMED 1906-07-22 16:00:00 NR 25.2000 132.400 main 668 657 __________O___ -1 25.2000 132.400 7 3 27
1906203N22131 1906 23 WP MM NOT_NAMED 1906-07-22 18:00:00 NR 25.2873 132.454 main 660 649 __________P___ -1 25.2873 132.454 7 3 29
1906203N22131 1906 23 WP MM NOT_NAMED 1906-07-22 21:00:00 NR 25.3990 132.522 main 649 641 __________P___ -1 25.3990 132.522 7 3 28
1906203N22131 1906 23 WP MM NOT_NAMED 1906-07-23 00:00:00 NR 25.5100 132.588 main 641 630 __________P___ -1 25.5100 132.588 7 3 28
1906203N22131 1906 23 WP MM NOT_NAMED 1906-07-23 03:00:00 NR 25.6452 132.668 main 633 623 __________P___ -1 25.6452 132.668 7 3 29
1906203N22131 1906 23 WP MM NOT_NAMED 1906-07-23 04:00:00 NR 25.7000 132.700 main 623 612 __________O___ -1 25.7000 132.700 7 4 32
1906203N22131 1906 23 WP MM NOT_NAMED 1906-07-23 06:00:00 NR 25.8251 132.788 main 615 598 __________P___ -1 25.8251 132.788 7 5 32
1906203N22131 1906 23 WP MM NOT_NAMED 1906-07-23 09:00:00 NR 26.0439 132.939 main 598 574 __________P___ -1 26.0439 132.939 7 6 30
1906203N22131 1906 23 WP MM NOT_NAMED 1906-07-23 12:00:00 NR 26.3001 133.099 main 574 548 __________P___ -1 26.3001 133.099 7 6 27
1906203N22131 1906 23 WP MM NOT_NAMED 1906-07-23 15:00:00 NR 26.5938 133.253 main 552 542 __________P___ -1 26.5938 133.253 7 7 24
1906203N22131 1906 23 WP MM NOT_NAMED 1906-07-23 16:00:00 NR 26.7000 133.300 main 542 527 __________O___ -1 26.7000 133.300 3 7 20
1906203N22131 1906 23 WP MM NOT_NAMED 1906-07-23 18:00:00 NR 26.9245 133.385 main 527 494 __________P___ -1 26.9245 133.385 3 7 17
1906203N22131 1906 23 WP MM NOT_NAMED 1906-07-23 21:00:00 NR 27.2864 133.495 main 494 463 __________P___ -1 27.2864 133.495 3 8 14
1906203N22131 1906 23 WP MM NOT_NAMED 1906-07-24 00:00:00 NR 27.6703 133.588 main 463 429 __________P___ -1 27.6703 133.588 3 8 11
1906203N22131 1906 23 WP MM NOT_NAMED 1906-07-24 03:00:00 NR 28.0667 133.673 main 429 420 __________P___ -1 28.0667 133.673 3 8 10
1906203N22131 1906 23 WP MM NOT_NAMED 1906-07-24 04:00:00 NR 28.2000 133.700 main 420 __________O___ -1 28.2000 133.700 4 8 0

デジタル台風データ・検索

IBTrACS Databaseについて

本データベースは、米国NOAAが公開する1842年以降の世界の熱帯低気圧のベストトラックデータアーカイブInternational Best Track Archive for Climate Stewardship (IBTrACS)を、ウェブで閲覧しやすい形式に変換したものです。

最終更新日:2021-12-01